Time;durP1;ratioP1;P1;durP2;ratioP2;P2;SDS_P1;SDS_P2;PMS_P1;PMS_P2;Temp;Humidity;BMP_temperature;BMP_pressure;BME280_temperature;BME280_humidity;BME280_pressure;Samples;Min_cycle;Max_cycle;Signal;HPM_P1;HPM_P2
2023/05/11 00:02:45;;;;;;;2.30;0.70;;;12.80;99.90;;;;;;1904886;74;21173;-81
2023/05/11 00:05:37;;;;;;;2.83;0.90;;;12.80;99.90;;;;;;1904518;75;21157;-80
2023/05/11 00:08:28;;;;;;;1.95;0.75;;;12.80;99.90;;;;;;1904034;74;21176;-81
2023/05/11 00:11:20;;;;;;;4.78;1.00;;;12.80;99.90;;;;;;1904752;74;21087;-81
2023/05/11 00:16:51;;;;;;;2.95;1.12;;;12.80;99.90;;;;;;1949014;72;22265;-80
2023/05/11 00:19:42;;;;;;;2.62;0.75;;;12.80;99.90;;;;;;1912306;73;21126;-80
2023/05/11 00:22:33;;;;;;;2.50;0.80;;;12.80;99.90;;;;;;1920811;74;21145;-81
2023/05/11 00:25:24;;;;;;;3.60;0.70;;;12.80;99.90;;;;;;1906031;74;21238;-81
2023/05/11 00:28:15;;;;;;;2.35;0.70;;;12.70;99.90;;;;;;1922765;74;21051;-81
2023/05/11 00:33:46;;;;;;;2.55;0.90;;;12.70;99.90;;;;;;1927396;72;22170;-80
2023/05/11 00:36:38;;;;;;;3.20;0.60;;;12.70;99.90;;;;;;1879430;75;21300;-80
2023/05/11 00:39:31;;;;;;;3.17;0.88;;;12.70;99.90;;;;;;1881602;75;21114;-80
2023/05/11 00:42:22;;;;;;;2.62;0.80;;;12.90;99.90;;;;;;1870971;76;21508;-80
2023/05/11 00:45:13;;;;;;;3.02;0.90;;;12.90;99.90;;;;;;1889021;75;21123;-81
2023/05/11 00:50:46;;;;;;;3.25;0.95;;;12.90;99.90;;;;;;1926187;72;22181;-80
2023/05/11 00:53:37;;;;;;;1.70;0.55;;;12.90;99.90;;;;;;1912350;74;21640;-83
2023/05/11 00:56:28;;;;;;;4.12;0.57;;;13.00;99.90;;;;;;1913912;75;21322;-80
2023/05/11 00:59:20;;;;;;;2.70;0.60;;;13.10;99.90;;;;;;1907435;75;21054;-81
2023/05/11 01:04:52;;;;;;;2.02;0.60;;;13.10;99.90;;;;;;1946451;72;22648;-80
2023/05/11 01:10:31;;;;;;;3.30;1.02;;;13.10;99.90;;;;;;1916953;72;22191;-80
2023/05/11 01:13:26;;;;;;;1.47;0.50;;;13.30;99.90;;;;;;1885765;75;21156;-82
2023/05/11 01:19:04;;;;;;;2.42;0.70;;;13.20;99.90;;;;;;1935060;72;22150;-80
2023/05/11 01:21:56;;;;;;;2.40;0.60;;;13.20;99.90;;;;;;1942540;73;21046;-80
2023/05/11 01:24:56;;;;;;;1.45;0.50;;;13.30;99.90;;;;;;1948542;73;21149;-83
2023/05/11 01:36:12;;;;;;;2.00;0.60;;;13.60;99.90;;;;;;1949561;72;22695;-80
2023/05/11 01:41:44;;;;;;;1.90;0.60;;;13.70;99.90;;;;;;1952786;72;22279;-80
2023/05/11 01:44:37;;;;;;;2.45;0.60;;;13.60;99.90;;;;;;1909987;74;21168;-82
2023/05/11 01:47:31;;;;;;;2.92;0.62;;;13.60;99.90;;;;;;1898742;75;21146;-82
2023/05/11 01:50:25;;;;;;;2.50;0.85;;;13.50;99.90;;;;;;1903759;75;21361;-81
2023/05/11 01:55:57;;;;;;;1.65;0.60;;;13.50;99.90;;;;;;1949185;72;22607;-81
2023/05/11 01:58:49;;;;;;;3.58;1.05;;;13.40;99.90;;;;;;1930215;73;21098;-81
2023/05/11 02:01:41;;;;;;;2.20;0.70;;;13.10;99.90;;;;;;1917745;73;22249;-80
2023/05/11 02:04:34;;;;;;;2.52;0.60;;;12.90;99.90;;;;;;1923508;73;21528;-81
2023/05/11 02:07:26;;;;;;;2.70;0.53;;;12.80;99.90;;;;;;1923677;73;21062;-81
2023/05/11 02:10:20;;;;;;;4.53;0.72;;;12.80;99.90;;;;;;1919957;73;21110;-80
2023/05/11 02:13:13;;;;;;;1.70;0.60;;;12.80;99.90;;;;;;1923974;73;21094;-81
2023/05/11 02:16:07;;;;;;;1.95;0.50;;;12.70;99.90;;;;;;1917280;73;21142;-81
2023/05/11 02:19:00;;;;;;;2.67;0.55;;;12.80;99.90;;;;;;1920586;73;21147;-81
2023/05/11 02:21:54;;;;;;;2.40;0.50;;;12.90;99.90;;;;;;1937704;73;21320;-81
2023/05/11 02:24:47;;;;;;;4.80;0.70;;;12.90;99.90;;;;;;1920356;73;21199;-80
2023/05/11 02:27:38;;;;;;;3.12;0.75;;;13.10;99.90;;;;;;1917143;75;21229;-80
2023/05/11 02:30:31;;;;;;;3.02;0.70;;;13.00;99.90;;;;;;1916873;73;21212;-80
2023/05/11 02:33:26;;;;;;;3.50;0.62;;;13.00;99.90;;;;;;1916976;75;21177;-81
2023/05/11 02:36:20;;;;;;;2.92;0.93;;;12.90;99.90;;;;;;1937856;73;21505;-81
2023/05/11 02:41:56;;;;;;;2.42;0.55;;;13.10;99.90;;;;;;1934598;72;22221;-80
2023/05/11 02:44:53;;;;;;;4.58;1.10;;;13.10;99.90;;;;;;1915082;74;21131;-80
2023/05/11 02:47:47;;;;;;;2.77;0.90;;;13.00;99.90;;;;;;1893617;75;21105;-80
2023/05/11 02:50:42;;;;;;;3.05;0.93;;;13.00;99.90;;;;;;1897207;75;21113;-81
2023/05/11 02:53:34;;;;;;;2.70;0.93;;;13.00;99.90;;;;;;1892479;75;21149;-79
2023/05/11 02:56:26;;;;;;;3.95;0.95;;;13.00;99.90;;;;;;1884951;75;21192;-81
2023/05/11 02:59:18;;;;;;;1.70;0.60;;;13.00;99.90;;;;;;1904867;75;21231;-82
2023/05/11 03:02:10;;;;;;;5.33;0.90;;;13.00;99.90;;;;;;1893747;75;21573;-81
2023/05/11 03:05:01;;;;;;;3.33;0.75;;;12.90;99.90;;;;;;1882688;75;21512;-80
2023/05/11 03:10:34;;;;;;;1.62;0.78;;;12.90;99.90;;;;;;1939782;72;22264;-79
2023/05/11 03:13:27;;;;;;;2.25;0.70;;;12.90;99.90;;;;;;1890868;75;21197;-79
2023/05/11 03:16:21;;;;;;;3.87;0.75;;;13.00;99.90;;;;;;1906738;75;21083;-79
2023/05/11 03:19:13;;;;;;;2.62;0.50;;;13.00;99.90;;;;;;1904220;75;21085;-82
2023/05/11 03:22:06;;;;;;;2.02;0.75;;;12.90;99.90;;;;;;1891239;75;21082;-81
2023/05/11 03:24:58;;;;;;;2.67;1.00;;;12.90;99.90;;;;;;1908842;75;21090;-81
2023/05/11 03:30:35;;;;;;;3.35;0.75;;;12.90;99.90;;;;;;1952288;72;22149;-79
2023/05/11 03:33:26;;;;;;;2.33;0.85;;;13.00;99.90;;;;;;1929106;73;21039;-80
2023/05/11 03:36:19;;;;;;;2.10;0.70;;;13.00;99.90;;;;;;1926072;73;21198;-80
2023/05/11 03:39:14;;;;;;;4.30;0.90;;;12.90;99.90;;;;;;1932767;73;21095;-80
2023/05/11 03:42:07;;;;;;;2.67;0.70;;;13.00;99.90;;;;;;1918231;73;21107;-80
2023/05/11 03:45:00;;;;;;;2.30;0.70;;;13.10;99.90;;;;;;1923052;73;21510;-80
2023/05/11 03:50:34;;;;;;;2.02;0.65;;;13.00;99.90;;;;;;1931775;72;22717;-80
2023/05/11 03:56:08;;;;;;;2.87;0.90;;;13.10;99.90;;;;;;1944746;72;22186;-80
2023/05/11 03:58:59;;;;;;;3.65;0.75;;;13.10;99.90;;;;;;1901035;75;21099;-80
2023/05/11 04:01:52;;;;;;;3.85;1.00;;;13.10;99.90;;;;;;1890051;75;21141;-81
2023/05/11 04:04:43;;;;;;;2.90;0.70;;;13.10;99.90;;;;;;1891743;75;21114;-81
2023/05/11 04:07:35;;;;;;;2.47;0.93;;;13.10;99.90;;;;;;1909936;75;21110;-80
2023/05/11 04:10:27;;;;;;;3.37;0.70;;;13.00;99.90;;;;;;1894959;75;21342;-80
2023/05/11 04:13:19;;;;;;;3.25;0.60;;;13.00;99.90;;;;;;1889494;75;21184;-80
2023/05/11 04:16:11;;;;;;;2.37;0.60;;;13.00;99.90;;;;;;1898428;75;21471;-80
2023/05/11 04:21:40;;;;;;;2.20;0.80;;;12.90;99.90;;;;;;1928854;72;22573;-80
2023/05/11 04:24:32;;;;;;;3.25;0.80;;;12.90;99.90;;;;;;1890511;75;21185;-81
2023/05/11 04:27:24;;;;;;;1.57;0.60;;;12.90;99.90;;;;;;1887831;75;21129;-81
2023/05/11 04:30:15;;;;;;;1.85;0.88;;;12.90;99.90;;;;;;1891725;75;21181;-80
2023/05/11 04:33:07;;;;;;;2.55;1.00;;;12.90;99.90;;;;;;1903884;75;21074;-80
2023/05/11 04:38:39;;;;;;;2.37;0.90;;;13.00;99.90;;;;;;1961430;72;22158;-80
2023/05/11 04:41:31;;;;;;;4.20;0.80;;;13.00;99.90;;;;;;1933750;74;21106;-80
2023/05/11 04:44:23;;;;;;;2.60;0.70;;;13.00;99.90;;;;;;1918668;74;21775;-80
2023/05/11 04:47:15;;;;;;;2.37;0.85;;;13.10;99.90;;;;;;1927916;74;21150;-80
2023/05/11 04:50:09;;;;;;;2.55;0.90;;;13.10;99.90;;;;;;1914106;74;21208;-80
2023/05/11 04:53:01;;;;;;;3.08;1.00;;;13.10;99.90;;;;;;1905021;74;21208;-80
2023/05/11 04:55:53;;;;;;;4.72;1.07;;;13.10;99.90;;;;;;1922205;74;21160;-80
2023/05/11 04:58:45;;;;;;;3.55;0.68;;;13.00;99.90;;;;;;1916032;74;21098;-80
2023/05/11 05:01:36;;;;;;;5.20;1.00;;;13.10;99.90;;;;;;1908133;74;21162;-81
2023/05/11 05:04:28;;;;;;;1.95;1.00;;;13.00;99.90;;;;;;1904939;74;21106;-80
2023/05/11 05:07:20;;;;;;;3.37;0.70;;;13.00;99.90;;;;;;1914203;74;21530;-81
2023/05/11 05:10:12;;;;;;;2.58;0.98;;;12.90;99.90;;;;;;1920999;74;21771;-81
2023/05/11 05:13:04;;;;;;;2.77;0.70;;;13.00;99.90;;;;;;1908703;74;21102;-81
2023/05/11 05:15:55;;;;;;;4.80;1.35;;;13.10;99.90;;;;;;1904642;74;21083;-82
2023/05/11 05:18:47;;;;;;;5.00;1.00;;;13.10;99.90;;;;;;1912767;74;21181;-81
2023/05/11 05:21:39;;;;;;;3.42;0.90;;;13.20;99.90;;;;;;1904632;74;21188;-83
2023/05/11 05:27:11;;;;;;;2.50;1.10;;;13.20;99.90;;;;;;1946731;72;22702;-78
2023/05/11 05:32:42;;;;;;;3.08;1.05;;;13.30;99.90;;;;;;1949153;72;22240;-78
2023/05/11 05:35:33;;;;;;;4.03;0.80;;;13.40;99.90;;;;;;1912781;74;21172;-78
2023/05/11 05:41:03;;;;;;;3.37;1.10;;;13.50;99.90;;;;;;1923101;72;22232;-78
2023/05/11 05:43:56;;;;;;;2.45;0.90;;;13.50;99.90;;;;;;1907560;74;21063;-80
2023/05/11 05:46:48;;;;;;;2.85;1.00;;;13.60;99.90;;;;;;1905095;75;21442;-80
2023/05/11 05:49:39;;;;;;;5.12;1.30;;;13.70;99.90;;;;;;1913503;75;21078;-80
2023/05/11 05:52:31;;;;;;;3.25;1.00;;;13.70;99.90;;;;;;1915046;75;21110;-79
2023/05/11 05:58:02;;;;;;;3.80;1.05;;;13.90;99.90;;;;;;1961090;72;22153;-80
2023/05/11 06:00:54;;;;;;;2.77;1.15;;;13.90;99.90;;;;;;1916608;75;21171;-81
2023/05/11 06:03:46;;;;;;;3.42;0.70;;;13.90;99.90;;;;;;1916926;75;21158;-81
2023/05/11 06:06:38;;;;;;;2.05;0.80;;;14.00;99.90;;;;;;1917194;73;21135;-79
2023/05/11 06:12:09;;;;;;;3.77;0.80;;;13.80;99.90;;;;;;1935308;72;22578;-80
2023/05/11 06:17:43;;;;;;;2.87;0.80;;;13.60;99.90;;;;;;1945379;72;23556;-79
2023/05/11 06:20:35;;;;;;;3.30;0.80;;;13.70;99.90;;;;;;1907499;75;21153;-79
2023/05/11 06:26:06;;;;;;;1.87;0.65;;;13.50;99.90;;;;;;1936252;72;22591;-80
2023/05/11 06:28:58;;;;;;;2.67;0.95;;;13.50;99.90;;;;;;1901299;75;21091;-80
2023/05/11 06:31:53;;;;;;;4.12;1.30;;;13.60;99.90;;;;;;1898038;75;21174;-79
2023/05/11 06:34:45;;;;;;;4.12;0.95;;;13.50;99.90;;;;;;1907773;75;21773;-79
2023/05/11 06:37:37;;;;;;;3.17;0.88;;;13.40;99.90;;;;;;1906320;75;21048;-80
2023/05/11 06:40:29;;;;;;;1.00;0.62;;;13.40;99.90;;;;;;1889694;75;21122;-81
2023/05/11 06:45:58;;;;;;;3.37;0.90;;;13.50;99.90;;;;;;1947850;72;22160;-79
2023/05/11 06:48:50;;;;;;;2.67;0.80;;;13.50;99.90;;;;;;1925255;73;21285;-79
2023/05/11 06:54:21;;;;;;;3.10;0.78;;;13.70;99.90;;;;;;1942164;72;22207;-80
2023/05/11 06:57:13;;;;;;;1.85;0.60;;;13.60;99.90;;;;;;1908104;75;21159;-80
2023/05/11 07:00:07;;;;;;;2.70;0.70;;;13.60;99.90;;;;;;1897265;74;21557;-80
2023/05/11 07:05:38;;;;;;;1.85;0.80;;;13.70;99.90;;;;;;1943395;72;22198;-80
2023/05/11 07:08:30;;;;;;;2.25;0.88;;;13.90;99.90;;;;;;1937865;73;21103;-80
2023/05/11 07:14:02;;;;;;;3.02;0.80;;;13.90;99.90;;;;;;1937374;72;22250;-80
2023/05/11 07:16:54;;;;;;;3.85;0.90;;;14.00;99.90;;;;;;1885468;75;21188;-80
2023/05/11 07:19:46;;;;;;;2.87;1.35;;;14.00;99.90;;;;;;1891805;75;21058;-80
2023/05/11 07:22:37;;;;;;;2.72;0.88;;;14.10;99.90;;;;;;1880497;75;21125;-79
2023/05/11 07:25:31;;;;;;;3.27;0.80;;;14.10;99.90;;;;;;1880974;75;21151;-78
2023/05/11 07:31:01;;;;;;;2.50;0.90;;;14.10;99.90;;;;;;1958507;72;22635;-80
2023/05/11 07:33:53;;;;;;;2.12;0.68;;;14.20;99.90;;;;;;1925629;73;21161;-81
2023/05/11 07:36:45;;;;;;;4.30;0.85;;;14.10;99.90;;;;;;1920660;73;21101;-79
2023/05/11 07:39:36;;;;;;;2.50;0.68;;;14.10;99.90;;;;;;1927972;73;21126;-78
2023/05/11 07:42:28;;;;;;;2.17;0.80;;;14.10;99.90;;;;;;1942906;73;21097;-79
2023/05/11 07:45:19;;;;;;;1.62;0.78;;;14.20;99.90;;;;;;1933132;73;21097;-79
2023/05/11 07:50:49;;;;;;;2.12;0.60;;;14.00;99.90;;;;;;1966963;71;22107;-78
2023/05/11 07:53:40;;;;;;;2.90;0.88;;;14.10;99.90;;;;;;1931695;73;21091;-78
2023/05/11 07:56:32;;;;;;;2.47;0.75;;;14.00;99.90;;;;;;1919574;74;21039;-80
2023/05/11 07:59:23;;;;;;;1.95;0.80;;;14.10;99.90;;;;;;1921756;74;21124;-79
2023/05/11 08:02:15;;;;;;;2.27;0.75;;;14.00;99.90;;;;;;1906877;74;21099;-79
2023/05/11 08:07:46;;;;;;;1.77;0.60;;;14.10;99.90;;;;;;1962963;72;22689;-80
2023/05/11 08:10:37;;;;;;;3.50;1.00;;;14.10;99.90;;;;;;1932359;73;21072;-79
2023/05/11 08:16:10;;;;;;;1.82;0.50;;;14.20;99.90;;;;;;1962052;72;22625;-78
2023/05/11 08:21:40;;;;;;;4.60;0.70;;;14.30;99.90;;;;;;1963070;72;22275;-79
2023/05/11 08:24:31;;;;;;;1.12;0.55;;;14.40;99.90;;;;;;1918637;73;21085;-79
2023/05/11 08:27:22;;;;;;;2.10;0.68;;;14.40;99.90;;;;;;1939218;73;21098;-79
2023/05/11 08:30:15;;;;;;;1.67;0.50;;;14.60;99.90;;;;;;1927541;73;21228;-79
2023/05/11 08:33:07;;;;;;;3.40;0.60;;;14.80;99.90;;;;;;1931062;73;21059;-78
2023/05/11 08:36:00;;;;;;;1.95;0.57;;;15.00;99.90;;;;;;1927259;73;21105;-78
2023/05/11 08:38:51;;;;;;;0.82;0.50;;;15.10;99.90;;;;;;1924126;73;21040;-78
2023/05/11 08:41:46;;;;;;;1.57;0.50;;;15.20;99.90;;;;;;1918195;73;21129;-78
2023/05/11 08:44:43;;;;;;;2.00;0.50;;;15.10;99.90;;;;;;1918736;73;21143;-78
2023/05/11 08:47:35;;;;;;;3.10;0.40;;;15.10;99.90;;;;;;1937620;73;21159;-77
2023/05/11 08:53:04;;;;;;;2.55;0.60;;;15.00;99.90;;;;;;1945908;72;22246;-79
2023/05/11 08:55:57;;;;;;;1.37;0.60;;;14.90;99.90;;;;;;1898119;75;21517;-79
2023/05/11 09:01:32;;;;;;;1.77;0.65;;;15.10;99.90;;;;;;1955470;72;22167;-80
2023/05/11 09:04:24;;;;;;;1.47;0.72;;;15.20;99.90;;;;;;1934754;73;21188;-80
2023/05/11 09:07:17;;;;;;;1.40;0.40;;;15.20;99.90;;;;;;1936688;73;21278;-79
2023/05/11 09:10:11;;;;;;;1.55;0.50;;;15.20;99.90;;;;;;1923046;73;21167;-78
2023/05/11 09:13:04;;;;;;;3.20;0.88;;;15.30;99.90;;;;;;1916909;73;21184;-79
2023/05/11 09:15:56;;;;;;;3.90;0.80;;;15.40;99.90;;;;;;1923105;73;21122;-79
2023/05/11 09:18:52;;;;;;;2.80;0.70;;;15.60;99.90;;;;;;1919372;73;21152;-78
2023/05/11 09:21:43;;;;;;;2.08;0.42;;;15.70;99.90;;;;;;1917070;75;21134;-79
2023/05/11 09:27:14;;;;;;;0.80;0.50;;;15.80;99.90;;;;;;1942823;72;22200;-78
2023/05/11 09:30:16;;;;;;;0.85;0.60;;;15.70;99.90;;;;;;1913434;75;21106;-80
2023/05/11 09:35:48;;;;;;;2.95;0.42;;;15.70;99.90;;;;;;1922509;72;22687;-81
2023/05/11 09:38:39;;;;;;;2.50;0.60;;;15.80;99.90;;;;;;1928178;73;21537;-81
2023/05/11 09:44:12;;;;;;;3.33;0.62;;;15.80;99.90;;;;;;1936934;72;22687;-80
2023/05/11 09:47:12;;;;;;;0.65;0.35;;;15.80;99.90;;;;;;1914236;74;21143;-79
2023/05/11 09:50:08;;;;;;;1.67;0.50;;;15.80;99.90;;;;;;1892883;75;21431;-79
2023/05/11 09:55:46;;;;;;;2.40;0.55;;;16.00;99.90;;;;;;1945329;72;22251;-81
2023/05/11 09:58:48;;;;;;;1.70;0.40;;;16.00;99.90;;;;;;1900242;75;21141;-79
2023/05/11 10:01:40;;;;;;;0.70;0.40;;;16.00;99.90;;;;;;1886691;75;21135;-79
2023/05/11 10:04:31;;;;;;;3.10;0.50;;;16.10;99.90;;;;;;1892422;75;21156;-78
2023/05/11 10:07:30;;;;;;;1.70;0.60;;;16.20;99.90;;;;;;1912014;75;21039;-79
2023/05/11 10:10:22;;;;;;;0.95;0.40;;;16.10;99.90;;;;;;1907962;75;21124;-79
2023/05/11 10:15:54;;;;;;;2.02;0.40;;;16.20;99.90;;;;;;1943642;72;22208;-79
2023/05/11 10:18:47;;;;;;;1.10;0.40;;;16.20;99.90;;;;;;1917933;73;21117;-79
2023/05/11 10:21:39;;;;;;;1.55;0.30;;;16.30;99.90;;;;;;1919860;73;21086;-79
2023/05/11 10:24:31;;;;;;;1.00;0.45;;;16.20;99.90;;;;;;1935329;73;21067;-79
2023/05/11 10:30:02;;;;;;;1.12;0.42;;;16.20;99.90;;;;;;1928698;72;22205;-80
2023/05/11 10:32:55;;;;;;;1.80;0.50;;;16.20;99.90;;;;;;1885629;75;21158;-79
2023/05/11 10:35:48;;;;;;;1.65;0.35;;;16.20;99.90;;;;;;1885775;75;21118;-78
2023/05/11 10:41:32;;;;;;;0.57;0.30;;;16.20;99.90;;;;;;1935143;72;22226;-78
2023/05/11 10:44:37;;;;;;;1.35;0.70;;;16.30;99.90;;;;;;1903550;75;21044;-80
2023/05/11 10:47:37;;;;;;;1.55;0.60;;;16.30;99.90;;;;;;1905304;75;21200;-79
2023/05/11 10:53:28;;;;;;;1.72;0.40;;;16.30;99.90;;;;;;1941500;72;22745;-78
2023/05/11 10:56:26;;;;;;;0.80;0.40;;;16.30;99.90;;;;;;1908827;75;21094;-79
2023/05/11 10:59:41;;;;;;;1.72;0.40;;;16.50;99.90;;;;;;1902341;75;21102;-79
2023/05/11 11:02:33;;;;;;;1.05;0.30;;;16.60;99.90;;;;;;1912854;75;21125;-80
2023/05/11 11:05:35;;;;;;;1.62;0.40;;;16.70;99.90;;;;;;1897219;75;21086;-79
2023/05/11 11:08:27;;;;;;;0.65;0.40;;;16.60;99.90;;;;;;1912346;75;21317;-79
2023/05/11 11:11:37;;;;;;;1.40;0.98;;;16.60;99.90;;;;;;1887526;75;21185;-79
2023/05/11 11:17:27;;;;;;;0.78;0.30;;;16.70;99.90;;;;;;1923986;72;22234;-80
2023/05/11 11:25:53;;;;;;;1.30;0.60;;;16.30;99.90;;;;;;1932639;72;22218;-78
2023/05/11 11:29:09;;;;;;;0.75;0.60;;;16.30;99.90;;;;;;1900724;75;21155;-78
2023/05/11 11:40:46;;;;;;;0.75;0.40;;;16.20;99.90;;;;;;1937138;72;22286;-78
2023/05/11 11:46:30;;;;;;;0.68;0.50;;;16.40;99.90;;;;;;1932005;72;22202;-78
2023/05/11 11:49:24;;;;;;;1.07;0.50;;;16.50;99.90;;;;;;1896213;75;21067;-81
2023/05/11 11:52:32;;;;;;;1.45;0.30;;;16.70;99.90;;;;;;1892112;75;21110;-79
2023/05/11 11:55:47;;;;;;;0.62;0.33;;;16.80;99.90;;;;;;1890630;75;21243;-79
2023/05/11 11:59:00;;;;;;;1.45;0.53;;;16.80;99.90;;;;;;1905611;75;21122;-79
2023/05/11 12:01:55;;;;;;;0.57;0.40;;;16.90;99.90;;;;;;1884246;75;21098;-79
2023/05/11 12:07:34;;;;;;;0.75;0.53;;;16.90;99.90;;;;;;1935774;72;23031;-79
2023/05/11 12:10:25;;;;;;;1.22;0.50;;;16.90;99.90;;;;;;1884893;75;21154;-80
2023/05/11 12:16:09;;;;;;;0.85;0.25;;;16.80;99.90;;;;;;1927334;72;22231;-78
2023/05/11 12:19:03;;;;;;;0.72;0.47;;;16.80;99.90;;;;;;1895134;75;21110;-78
2023/05/11 12:21:54;;;;;;;0.47;0.10;;;16.50;99.90;;;;;;1905463;75;21171;-78
2023/05/11 12:24:45;;;;;;;1.40;0.35;;;16.60;99.90;;;;;;1902662;75;21134;-78
2023/05/11 12:27:38;;;;;;;0.33;0.20;;;16.80;99.90;;;;;;1880831;75;21110;-79
2023/05/11 12:33:09;;;;;;;0.40;0.10;;;17.10;99.90;;;;;;1953217;72;23045;-78
2023/05/11 12:36:00;;;;;;;0.40;0.20;;;17.30;99.90;;;;;;1916911;73;21133;-78
2023/05/11 12:41:34;;;;;;;1.30;0.20;;;17.70;99.90;;;;;;1942816;72;22222;-81
2023/05/11 12:44:26;;;;;;;1.30;0.10;;;17.80;99.90;;;;;;1938235;73;21102;-79
2023/05/11 12:47:17;;;;;;;0.20;0.10;;;17.80;99.90;;;;;;1941450;73;21096;-79
2023/05/11 12:52:49;;;;;;;1.47;0.30;;;17.60;99.90;;;;;;1975731;72;22162;-78
2023/05/11 12:55:41;;;;;;;0.70;0.20;;;17.60;99.90;;;;;;1926027;73;21097;-78
2023/05/11 12:58:38;;;;;;;0.80;0.20;;;17.70;99.90;;;;;;1917040;75;21059;-78
2023/05/11 13:01:30;;;;;;;0.50;0.20;;;17.60;99.90;;;;;;1917196;75;21097;-77
2023/05/11 13:04:30;;;;;;;0.93;0.20;;;17.60;99.90;;;;;;1916373;75;21400;-78
2023/05/11 13:07:27;;;;;;;0.35;0.20;;;17.60;99.90;;;;;;1923020;73;21565;-78
2023/05/11 13:10:22;;;;;;;0.13;0.13;;;17.60;99.90;;;;;;1948689;73;21626;-78
2023/05/11 13:13:14;;;;;;;0.75;0.20;;;17.80;99.90;;;;;;1916982;75;21144;-80
2023/05/11 13:16:06;;;;;;;0.60;0.20;;;17.80;99.90;;;;;;1917211;75;21514;-79
2023/05/11 13:21:39;;;;;;;1.75;0.20;;;17.80;99.90;;;;;;1952925;72;22190;-80
2023/05/11 13:24:30;;;;;;;0.55;0.20;;;17.80;99.90;;;;;;1919720;74;21505;-79
2023/05/11 13:27:23;;;;;;;0.30;0.13;;;17.80;99.90;;;;;;1897177;75;21181;-79
2023/05/11 13:30:15;;;;;;;0.45;0.23;;;18.00;99.90;;;;;;1908675;75;21102;-79
2023/05/11 13:33:06;;;;;;;3.50;1.02;;;18.30;99.90;;;;;;1906095;75;21201;-79
2023/05/11 13:35:58;;;;;;;1.05;0.40;;;18.20;99.90;;;;;;1884350;76;21060;-79
2023/05/11 13:38:50;;;;;;;1.98;0.20;;;18.10;99.90;;;;;;1884181;76;21106;-80
2023/05/11 13:41:41;;;;;;;0.20;0.20;;;18.30;99.90;;;;;;1906348;75;21139;-80
2023/05/11 13:44:33;;;;;;;2.05;0.30;;;18.40;99.90;;;;;;1906446;75;21082;-79
2023/05/11 13:47:25;;;;;;;0.30;0.20;;;18.60;99.90;;;;;;1884192;76;21180;-79
2023/05/11 13:50:17;;;;;;;1.00;0.30;;;18.60;99.90;;;;;;1899862;75;21096;-80
2023/05/11 13:53:08;;;;;;;1.10;0.28;;;18.50;99.90;;;;;;1884717;75;21055;-79
2023/05/11 13:56:03;;;;;;;1.82;0.20;;;18.50;99.90;;;;;;1906347;75;21137;-79
2023/05/11 13:58:54;;;;;;;0.85;0.30;;;18.50;99.90;;;;;;1884086;75;21526;-79
2023/05/11 14:01:47;;;;;;;1.05;0.33;;;18.50;99.90;;;;;;1883925;76;21184;-79
2023/05/11 14:04:39;;;;;;;1.02;0.20;;;18.50;99.90;;;;;;1884004;76;21110;-80
2023/05/11 14:07:30;;;;;;;1.40;0.30;;;18.10;99.90;;;;;;1906136;75;21108;-79
2023/05/11 14:10:23;;;;;;;0.20;0.13;;;17.90;99.90;;;;;;1887807;75;21459;-79
2023/05/11 14:13:15;;;;;;;2.83;0.20;;;17.70;99.90;;;;;;1897016;75;21160;-78
2023/05/11 14:16:08;;;;;;;0.37;0.25;;;17.80;99.90;;;;;;1899186;75;21135;-79
2023/05/11 14:19:00;;;;;;;0.30;0.20;;;18.20;99.90;;;;;;1884872;75;21747;-79
2023/05/11 14:21:51;;;;;;;0.75;0.23;;;18.10;99.90;;;;;;1916821;74;21976;-80
2023/05/11 14:24:43;;;;;;;0.53;0.20;;;18.00;99.90;;;;;;1921978;74;21086;-80
2023/05/11 14:27:34;;;;;;;1.67;0.35;;;17.70;99.90;;;;;;1916434;74;21556;-79
2023/05/11 14:30:25;;;;;;;0.25;0.13;;;17.50;99.90;;;;;;1899797;75;21082;-79
2023/05/11 14:33:17;;;;;;;0.65;0.20;;;17.40;99.90;;;;;;1927058;74;21167;-79
2023/05/11 14:36:10;;;;;;;0.37;0.10;;;17.30;99.90;;;;;;1910025;74;21086;-78
2023/05/11 14:39:02;;;;;;;0.23;0.20;;;16.80;99.90;;;;;;1913777;74;21565;-79
2023/05/11 14:41:53;;;;;;;0.90;0.20;;;16.50;99.90;;;;;;1873369;76;21195;-79
2023/05/11 14:44:45;;;;;;;0.57;0.23;;;16.50;99.90;;;;;;1867415;76;21564;-79
2023/05/11 14:47:37;;;;;;;1.02;0.30;;;16.20;99.90;;;;;;1910180;74;21514;-78
2023/05/11 14:50:29;;;;;;;1.25;0.20;;;16.00;99.90;;;;;;1912639;74;21541;-79
2023/05/11 14:53:20;;;;;;;2.33;0.33;;;15.80;99.90;;;;;;1913499;74;21226;-79
2023/05/11 14:56:12;;;;;;;0.60;0.20;;;16.40;99.90;;;;;;1900554;74;21167;-79
2023/05/11 14:59:04;;;;;;;0.45;0.20;;;16.80;99.90;;;;;;1921472;74;21668;-78
2023/05/11 15:01:56;;;;;;;1.70;0.40;;;17.20;99.90;;;;;;1899104;75;21678;-79
2023/05/11 15:04:47;;;;;;;0.20;0.20;;;16.90;99.90;;;;;;1915183;74;21058;-79
2023/05/11 15:07:39;;;;;;;0.47;0.20;;;17.10;99.90;;;;;;1910206;74;21055;-78
2023/05/11 15:10:30;;;;;;;2.45;0.30;;;17.20;99.90;;;;;;1910118;74;21625;-79
2023/05/11 15:13:22;;;;;;;0.50;0.30;;;17.50;99.90;;;;;;1910411;74;21217;-79
2023/05/11 15:16:13;;;;;;;0.60;0.25;;;17.90;99.90;;;;;;1914501;74;21076;-79
2023/05/11 15:19:06;;;;;;;0.50;0.20;;;18.40;99.90;;;;;;1912736;74;21206;-79
2023/05/11 15:21:58;;;;;;;0.10;0.10;;;18.00;99.90;;;;;;1893890;75;21113;-79
2023/05/11 15:24:49;;;;;;;0.47;0.10;;;18.50;99.90;;;;;;1873725;75;21166;-79
2023/05/11 15:27:41;;;;;;;2.42;0.30;;;18.70;99.90;;;;;;1904074;75;21095;-80
2023/05/11 15:30:32;;;;;;;1.47;0.28;;;17.70;99.90;;;;;;1897527;75;21200;-80
2023/05/11 15:33:24;;;;;;;0.28;0.20;;;16.80;99.90;;;;;;1894305;75;21103;-79
2023/05/11 15:36:16;;;;;;;0.57;0.25;;;16.40;99.90;;;;;;1894090;75;21118;-79
2023/05/11 15:39:10;;;;;;;2.00;0.37;;;16.10;99.90;;;;;;1895213;75;21063;-79
2023/05/11 15:42:01;;;;;;;1.80;0.20;;;15.90;99.90;;;;;;1899465;75;21103;-79
2023/05/11 15:44:53;;;;;;;1.00;0.30;;;15.80;99.90;;;;;;1883418;75;21170;-79
2023/05/11 15:47:44;;;;;;;0.57;0.25;;;15.70;99.90;;;;;;1871547;77;21557;-79
2023/05/11 15:50:36;;;;;;;0.60;0.30;;;15.90;99.90;;;;;;1893312;75;21115;-79
2023/05/11 15:53:28;;;;;;;1.60;0.42;;;16.00;99.90;;;;;;1889324;75;21499;-79
2023/05/11 15:56:19;;;;;;;0.70;0.20;;;16.00;99.90;;;;;;1883823;75;21102;-79
2023/05/11 15:59:11;;;;;;;0.72;0.30;;;16.10;99.90;;;;;;1881610;75;21212;-80
2023/05/11 16:02:02;;;;;;;0.53;0.20;;;16.10;99.90;;;;;;1903141;75;21104;-80
2023/05/11 16:04:55;;;;;;;4.30;1.72;;;16.20;99.90;;;;;;1888157;75;21136;-79
2023/05/11 16:07:46;;;;;;;1.67;0.75;;;16.20;99.90;;;;;;1884018;75;21233;-80
2023/05/11 16:10:38;;;;;;;1.32;1.22;;;16.40;99.90;;;;;;1881871;75;21063;-79
2023/05/11 16:13:29;;;;;;;1.65;0.65;;;16.40;99.90;;;;;;1894178;75;21667;-79
2023/05/11 16:16:20;;;;;;;0.95;0.65;;;16.20;99.90;;;;;;1898186;75;21090;-78
2023/05/11 16:19:12;;;;;;;1.55;0.47;;;16.10;99.90;;;;;;1896335;75;21142;-80
2023/05/11 16:22:04;;;;;;;1.72;0.80;;;15.90;99.90;;;;;;1893878;75;21135;-80
2023/05/11 16:24:55;;;;;;;1.22;0.60;;;15.70;99.90;;;;;;1894235;75;21114;-79
2023/05/11 16:27:47;;;;;;;1.50;0.50;;;15.40;99.90;;;;;;1896789;75;21088;-80
2023/05/11 16:30:39;;;;;;;0.50;0.30;;;15.10;99.90;;;;;;1885204;75;21096;-80
2023/05/11 16:33:30;;;;;;;1.37;0.10;;;15.00;99.90;;;;;;1882010;75;21075;-79
2023/05/11 16:36:22;;;;;;;0.15;0.10;;;14.90;99.90;;;;;;1899996;75;21095;-79
2023/05/11 16:39:14;;;;;;;0.20;0.10;;;14.90;99.90;;;;;;1883369;76;21104;-78
2023/05/11 16:42:07;;;;;;;0.53;0.40;;;14.90;99.90;;;;;;1898800;75;21110;-80
2023/05/11 16:44:58;;;;;;;1.30;0.30;;;14.80;99.90;;;;;;1883081;75;21174;-79
2023/05/11 16:47:50;;;;;;;0.20;0.20;;;14.70;99.90;;;;;;1910932;75;21082;-79
2023/05/11 16:50:42;;;;;;;0.55;0.35;;;14.70;99.90;;;;;;1894224;75;21126;-80
2023/05/11 16:53:34;;;;;;;0.30;0.20;;;14.60;99.90;;;;;;1898932;75;21137;-78
2023/05/11 16:56:25;;;;;;;0.15;0.00;;;14.80;99.90;;;;;;1895342;75;21131;-78
2023/05/11 16:59:16;;;;;;;0.00;0.00;;;14.80;99.90;;;;;;1881976;75;21102;-79
2023/05/11 17:02:08;;;;;;;0.13;0.10;;;14.90;99.90;;;;;;1880287;75;21557;-79
2023/05/11 17:05:00;;;;;;;0.10;0.00;;;14.80;99.90;;;;;;1889622;75;21198;-79
2023/05/11 17:07:52;;;;;;;0.00;0.00;;;14.60;99.90;;;;;;1884976;75;21196;-81
2023/05/11 17:10:44;;;;;;;0.75;0.25;;;14.60;99.90;;;;;;1894198;75;21044;-79
2023/05/11 17:13:35;;;;;;;0.50;0.20;;;14.50;99.90;;;;;;1878807;75;21567;-79
2023/05/11 17:16:29;;;;;;;2.37;0.25;;;14.50;99.90;;;;;;1883325;76;21108;-79
2023/05/11 17:19:20;;;;;;;0.82;0.30;;;14.40;99.90;;;;;;1898050;75;21099;-79
2023/05/11 17:22:12;;;;;;;1.00;0.30;;;14.30;99.90;;;;;;1893957;75;21127;-79
2023/05/11 17:25:04;;;;;;;0.78;0.50;;;14.30;99.90;;;;;;1894446;74;21087;-79
2023/05/11 17:27:55;;;;;;;0.40;0.30;;;14.20;99.90;;;;;;1895113;75;21106;-79
2023/05/11 17:30:49;;;;;;;1.12;0.50;;;14.10;99.90;;;;;;1899612;75;21083;-79
2023/05/11 17:33:41;;;;;;;0.80;0.40;;;14.10;99.90;;;;;;1895264;75;21103;-79
2023/05/11 17:36:33;;;;;;;0.25;0.10;;;14.10;99.90;;;;;;1893851;75;21092;-79